Time;durP1;ratioP1;P1;durP2;ratioP2;P2;SDS_P1;SDS_P2;PMS_P1;PMS_P2;Temp;Humidity;BMP_temperature;BMP_pressure;BME280_temperature;BME280_humidity;BME280_pressure;Samples;Min_cycle;Max_cycle;Signal;HPM_P1;HPM_P2
2022/05/09 00:01:51;;;;;;;13.02;5.18;;;;;;;9.76;68.71;102674.31;5074053;28;20423;-72
2022/05/09 00:04:16;;;;;;;12.27;5.05;;;;;;;9.79;68.58;102666.50;5074855;28;20024;-73
2022/05/09 00:06:41;;;;;;;12.75;5.22;;;;;;;9.73;68.80;102664.72;5074657;28;20534;-73
2022/05/09 00:09:07;;;;;;;9.77;4.68;;;;;;;9.69;68.73;102665.56;5073869;28;20036;-73
2022/05/09 00:11:33;;;;;;;12.90;5.60;;;;;;;9.62;68.77;102663.75;5074349;28;20036;-73
2022/05/09 00:13:58;;;;;;;8.50;5.35;;;;;;;9.55;68.97;102660.22;5074620;28;20063;-72
2022/05/09 00:16:25;;;;;;;9.52;5.03;;;;;;;9.48;69.16;102661.03;5073740;28;20021;-73
2022/05/09 00:18:51;;;;;;;11.82;5.38;;;;;;;9.48;69.04;102660.13;5074326;28;20060;-72
2022/05/09 00:21:16;;;;;;;10.43;5.22;;;;;;;9.51;68.97;102655.81;5074758;28;20067;-73
2022/05/09 00:23:41;;;;;;;11.95;5.28;;;;;;;9.52;68.97;102656.72;5073390;28;20116;-72
2022/05/09 00:26:07;;;;;;;15.13;5.25;;;;;;;9.43;69.35;102654.88;5074380;28;20024;-72
2022/05/09 00:28:33;;;;;;;12.48;4.68;;;;;;;9.34;69.20;102652.19;5073907;28;20027;-72
2022/05/09 00:30:58;;;;;;;12.60;5.40;;;;;;;9.33;69.09;102655.66;5073722;28;20372;-72
2022/05/09 00:33:27;;;;;;;11.63;4.80;;;;;;;9.30;69.09;102650.41;5074432;28;20029;-72
2022/05/09 00:35:53;;;;;;;12.35;5.22;;;;;;;9.27;68.83;102647.78;5074107;28;20032;-72
2022/05/09 00:38:18;;;;;;;14.13;5.63;;;;;;;9.29;69.13;102648.69;5073527;28;20029;-72
2022/05/09 00:41:28;;;;;;;9.38;4.53;;;;;;;9.27;69.42;102650.38;5073890;28;20159;-73
2022/05/09 00:43:34;;;;;;;12.70;4.80;;;;;;;9.23;69.15;102646.00;5074131;28;20028;-72
2022/05/09 00:46:00;;;;;;;15.85;5.32;;;;;;;9.13;69.64;102653.72;5073473;28;20376;-72
2022/05/09 00:48:25;;;;;;;9.55;5.10;;;;;;;9.07;69.62;102652.75;5073992;28;20037;-73
2022/05/09 00:50:51;;;;;;;11.00;4.90;;;;;;;9.03;69.83;102651.84;5073849;28;20425;-72
2022/05/09 00:53:17;;;;;;;12.90;5.35;;;;;;;9.04;70.49;102648.38;5073182;28;20435;-72
2022/05/09 00:55:54;;;;;;;10.05;4.90;;;;;;;9.02;69.74;102646.63;5073465;28;20036;-72
2022/05/09 00:58:22;;;;;;;13.02;5.57;;;;;;;8.95;70.35;102648.28;5072911;28;20433;-72
2022/05/09 01:00:50;;;;;;;14.48;5.53;;;;;;;8.88;70.28;102638.66;5073578;28;20021;-72
2022/05/09 01:03:26;;;;;;;14.95;5.20;;;;;;;8.92;70.45;102648.22;5073809;28;20423;-72
2022/05/09 01:05:51;;;;;;;12.20;5.22;;;;;;;8.85;70.59;102651.63;5072778;28;20044;-72
2022/05/09 01:08:19;;;;;;;13.30;5.88;;;;;;;8.77;71.03;102643.72;5073682;28;20032;-72
2022/05/09 01:10:47;;;;;;;10.57;4.57;;;;;;;8.80;70.80;102641.16;5073394;28;20020;-72
2022/05/09 01:13:15;;;;;;;15.23;5.15;;;;;;;8.78;71.15;102639.41;5072569;28;20537;-72
2022/05/09 01:15:41;;;;;;;13.88;5.15;;;;;;;8.71;70.99;102634.97;5073140;28;20023;-72
2022/05/09 01:18:09;;;;;;;12.20;4.78;;;;;;;8.72;71.31;102632.38;5073315;28;20464;-72
2022/05/09 01:20:35;;;;;;;13.40;4.93;;;;;;;8.66;71.05;102633.19;5072179;28;20033;-72
2022/05/09 01:23:00;;;;;;;12.70;5.20;;;;;;;8.61;71.13;102629.66;5073428;28;20034;-73
2022/05/09 01:25:28;;;;;;;10.75;4.75;;;;;;;8.53;71.56;102623.47;5073501;28;20102;-72
2022/05/09 01:27:53;;;;;;;12.95;4.88;;;;;;;8.53;71.15;102628.66;5072021;28;20424;-72
2022/05/09 01:30:24;;;;;;;12.07;5.07;;;;;;;8.52;71.45;102633.84;5073190;28;20063;-72
2022/05/09 01:32:55;;;;;;;10.82;5.07;;;;;;;8.50;71.49;102631.25;5072880;28;20483;-72
2022/05/09 01:35:34;;;;;;;16.30;6.53;;;;;;;8.49;71.57;102629.47;5072288;28;20017;-72
2022/05/09 01:38:14;;;;;;;12.75;5.32;;;;;;;8.42;71.98;102623.31;5073302;28;20024;-72
2022/05/09 01:40:39;;;;;;;10.95;5.03;;;;;;;8.38;72.13;102625.88;5072153;28;20048;-72
2022/05/09 01:43:04;;;;;;;11.38;5.20;;;;;;;8.34;72.60;102627.53;5073037;28;20111;-72
2022/05/09 01:45:29;;;;;;;12.35;5.20;;;;;;;8.32;72.75;102629.22;5072884;28;20025;-72
2022/05/09 01:50:38;;;;;;;14.38;5.18;;;;;;;8.15;72.89;102618.59;5073096;28;20063;-72
2022/05/09 01:53:04;;;;;;;11.27;5.20;;;;;;;8.18;73.08;102625.56;5073029;28;20422;-72
2022/05/09 01:55:29;;;;;;;12.65;4.95;;;;;;;8.13;72.96;102614.22;5072197;28;20020;-72
2022/05/09 01:57:55;;;;;;;11.80;4.95;;;;;;;8.15;73.22;102631.56;5072350;28;20049;-72
2022/05/09 02:00:20;;;;;;;15.80;4.50;;;;;;;8.06;73.38;102635.75;5072749;28;20090;-72
2022/05/09 02:02:46;;;;;;;17.30;5.13;;;;;;;8.06;74.13;102625.38;5071618;28;20465;-72
2022/05/09 02:05:11;;;;;;;9.48;4.85;;;;;;;8.01;73.72;102620.09;5072911;28;20036;-72
2022/05/09 02:07:37;;;;;;;10.98;4.75;;;;;;;8.00;73.64;102626.13;5072484;28;20020;-72
2022/05/09 02:10:04;;;;;;;13.25;4.78;;;;;;;7.97;74.05;102629.53;5072001;28;20571;-72
2022/05/09 02:12:29;;;;;;;10.80;5.28;;;;;;;7.95;74.27;102627.81;5072649;28;20035;-72
2022/05/09 02:14:55;;;;;;;10.38;4.63;;;;;;;7.82;74.27;102625.84;5078603;28;20375;-72
2022/05/09 02:17:20;;;;;;;13.55;5.10;;;;;;;7.77;74.96;102628.34;5078769;28;20387;-72
2022/05/09 02:19:46;;;;;;;13.60;5.35;;;;;;;7.69;75.38;102632.56;5079223;28;20071;-72
2022/05/09 02:22:12;;;;;;;17.35;5.85;;;;;;;7.70;74.96;102621.31;5079305;28;20040;-72
2022/05/09 02:24:39;;;;;;;12.02;5.25;;;;;;;7.61;75.50;102619.44;5078310;28;20031;-72
2022/05/09 02:27:05;;;;;;;11.48;4.90;;;;;;;7.57;75.69;102611.59;5079237;28;20044;-72
2022/05/09 02:29:31;;;;;;;12.00;5.40;;;;;;;7.57;75.58;102621.97;5078386;28;20028;-72
2022/05/09 02:31:57;;;;;;;13.45;5.38;;;;;;;7.53;76.05;102623.63;5079440;28;20491;-72
2022/05/09 02:34:23;;;;;;;13.65;5.10;;;;;;;7.51;76.15;102617.53;5079311;28;20048;-72
2022/05/09 02:36:48;;;;;;;9.95;5.40;;;;;;;7.49;75.92;102614.91;5078191;28;20451;-72
2022/05/09 02:39:14;;;;;;;10.55;4.80;;;;;;;7.49;76.28;102607.13;5079113;28;20099;-72
2022/05/09 02:41:39;;;;;;;13.32;5.40;;;;;;;7.54;76.23;102615.00;5078841;28;20031;-72
2022/05/09 02:44:05;;;;;;;15.75;5.82;;;;;;;7.53;76.39;102610.66;5078386;28;20551;-72
2022/05/09 02:46:30;;;;;;;11.00;5.35;;;;;;;7.46;76.70;102614.00;5078964;28;20090;-72
2022/05/09 02:48:59;;;;;;;11.10;5.50;;;;;;;7.44;76.65;102605.31;5079076;28;20036;-72
2022/05/09 02:51:26;;;;;;;13.63;5.40;;;;;;;7.43;76.84;102609.63;5078281;28;20024;-72
2022/05/09 02:53:51;;;;;;;12.73;5.40;;;;;;;7.44;76.85;102610.50;5078525;28;20028;-72
2022/05/09 02:56:16;;;;;;;12.63;5.35;;;;;;;7.41;76.87;102619.09;5078966;28;20472;-72
2022/05/09 02:58:42;;;;;;;11.23;5.28;;;;;;;7.41;77.07;102619.09;5077697;28;20063;-72
2022/05/09 03:01:07;;;;;;;12.27;5.38;;;;;;;7.40;77.04;102613.88;5079093;28;20561;-72
2022/05/09 03:06:16;;;;;;;13.88;5.50;;;;;;;7.30;77.41;102609.38;5078246;28;20075;-71
2022/05/09 03:08:41;;;;;;;9.18;5.03;;;;;;;7.29;77.52;102605.88;5078579;28;20028;-72
2022/05/09 03:11:07;;;;;;;10.95;5.40;;;;;;;7.19;77.88;102599.69;5078706;28;20021;-72
2022/05/09 03:13:33;;;;;;;14.98;6.13;;;;;;;7.14;78.23;102606.50;5077961;28;20029;-72
2022/05/09 03:16:00;;;;;;;10.57;5.55;;;;;;;7.09;78.57;102610.69;5078922;28;20032;-72
2022/05/09 03:18:25;;;;;;;15.85;6.00;;;;;;;7.10;78.19;102603.81;5078714;28;20488;-72
2022/05/09 03:20:51;;;;;;;12.98;5.78;;;;;;;7.09;78.39;102610.69;5077651;28;20135;-72
2022/05/09 03:23:17;;;;;;;17.58;6.18;;;;;;;6.98;78.97;102607.03;5078733;28;20032;-72
2022/05/09 03:25:42;;;;;;;15.80;5.80;;;;;;;6.99;78.85;102603.59;5074827;28;20050;-72
2022/05/09 03:28:12;;;;;;;22.85;6.40;;;;;;;6.97;78.93;102600.97;5075241;28;20476;-72
2022/05/09 03:30:38;;;;;;;14.20;5.68;;;;;;;6.95;79.08;102600.06;5075388;28;20031;-72
2022/05/09 03:33:04;;;;;;;14.68;6.00;;;;;;;6.85;79.63;102597.28;5074787;28;20024;-72
2022/05/09 03:35:30;;;;;;;12.98;6.00;;;;;;;6.82;79.77;102592.03;5075446;28;20016;-72
2022/05/09 03:37:56;;;;;;;14.35;6.20;;;;;;;6.79;80.27;102598.88;5075236;28;20491;-72
2022/05/09 03:40:22;;;;;;;11.32;5.60;;;;;;;6.75;79.83;102589.31;5074485;28;20028;-72
2022/05/09 03:42:48;;;;;;;13.38;6.15;;;;;;;6.71;80.20;102594.41;5075137;28;20103;-72
2022/05/09 03:45:14;;;;;;;8.77;5.32;;;;;;;6.74;80.04;102591.88;5075267;28;20456;-72
2022/05/09 03:47:40;;;;;;;13.60;6.13;;;;;;;6.69;80.08;102591.78;5073999;28;20032;-72
2022/05/09 03:50:06;;;;;;;14.55;6.32;;;;;;;6.69;80.40;102590.91;5075137;28;20058;-72
2022/05/09 03:52:32;;;;;;;12.00;6.75;;;;;;;6.65;80.91;102596.88;5074547;28;20035;-72
2022/05/09 03:54:57;;;;;;;18.67;6.57;;;;;;;6.68;80.29;102586.56;5074285;28;20028;-72
2022/05/09 03:57:23;;;;;;;12.45;5.75;;;;;;;6.75;80.41;102593.63;5074930;28;20040;-72
2022/05/09 03:59:48;;;;;;;15.60;5.47;;;;;;;6.69;80.50;102591.78;5074723;28;20456;-72
2022/05/09 04:02:13;;;;;;;16.25;6.68;;;;;;;6.67;80.69;102596.06;5074187;28;20078;-72
2022/05/09 04:04:39;;;;;;;13.40;5.68;;;;;;;6.67;80.47;102587.38;5074585;28;20036;-72
2022/05/09 04:07:04;;;;;;;13.70;5.82;;;;;;;6.63;80.48;102590.78;5074808;28;20024;-72
2022/05/09 04:09:29;;;;;;;17.27;6.30;;;;;;;6.55;81.14;102594.06;5074122;28;20029;-71
2022/05/09 04:11:55;;;;;;;15.25;6.07;;;;;;;6.55;80.94;102583.72;5074838;28;20062;-71
2022/05/09 04:16:49;;;;;;;16.63;6.45;;;;;;;6.58;81.09;102585.50;5074759;28;20500;-72
2022/05/09 04:17:06;;;;;;;15.43;6.38;;;;;;;6.60;81.14;102594.16;5073788;28;20040;-72
2022/05/09 04:19:31;;;;;;;11.18;6.57;;;;;;;6.60;81.33;102583.81;5074435;28;20025;-72
2022/05/09 04:21:57;;;;;;;14.02;6.65;;;;;;;6.64;81.10;102590.81;5074456;28;20503;-71
2022/05/09 04:24:23;;;;;;;15.73;6.53;;;;;;;6.67;81.45;102589.97;5073845;28;20115;-71
2022/05/09 04:26:48;;;;;;;15.63;6.80;;;;;;;6.66;81.63;102583.94;5074320;28;20028;-71
2022/05/09 04:29:13;;;;;;;16.42;6.80;;;;;;;6.69;81.40;102583.13;5073648;28;20395;-72
2022/05/09 04:31:38;;;;;;;20.17;6.60;;;;;;;6.72;81.71;102585.78;5074109;28;20024;-71
2022/05/09 04:34:04;;;;;;;16.33;6.15;;;;;;;6.78;81.41;102586.78;5074327;28;20016;-71
2022/05/09 04:36:29;;;;;;;11.48;6.47;;;;;;;6.85;81.19;102581.72;5073182;28;20103;-72
2022/05/09 04:38:55;;;;;;;15.25;6.30;;;;;;;6.84;81.55;102577.38;5074032;28;20050;-72
2022/05/09 04:41:22;;;;;;;19.23;7.53;;;;;;;6.88;81.43;102585.25;5074234;28;20024;-71
2022/05/09 04:43:48;;;;;;;19.60;6.65;;;;;;;6.93;81.60;102581.03;5073016;28;20112;-72
2022/05/09 04:46:14;;;;;;;16.83;7.32;;;;;;;6.95;82.22;102579.31;5074090;28;20029;-72
2022/05/09 04:48:41;;;;;;;17.83;7.05;;;;;;;6.99;82.10;102583.72;5073531;28;20473;-72
2022/05/09 04:51:08;;;;;;;19.77;7.18;;;;;;;7.06;81.65;102581.25;5073279;28;20099;-72
2022/05/09 04:53:33;;;;;;;20.08;7.10;;;;;;;7.13;81.92;102580.50;5073753;28;20040;-72
2022/05/09 04:55:58;;;;;;;17.20;7.03;;;;;;;7.19;81.55;102580.63;5073965;28;20020;-71
2022/05/09 04:58:24;;;;;;;22.92;7.20;;;;;;;7.23;81.61;102575.53;5072810;28;20116;-71
2022/05/09 05:00:49;;;;;;;20.88;7.22;;;;;;;7.31;80.70;102573.06;5073533;28;20027;-71
2022/05/09 05:03:15;;;;;;;16.90;6.45;;;;;;;7.41;80.79;102572.38;5073673;28;20032;-72
2022/05/09 05:05:42;;;;;;;18.73;7.55;;;;;;;7.46;79.98;102559.50;5072654;28;20029;-72
2022/05/09 05:08:07;;;;;;;20.38;7.72;;;;;;;7.55;80.01;102567.41;5073765;28;20031;-71
2022/05/09 05:10:33;;;;;;;18.98;7.85;;;;;;;7.59;79.92;102563.19;5073333;28;20036;-72
2022/05/09 05:12:59;;;;;;;18.92;7.22;;;;;;;7.67;80.15;102567.63;5072838;28;20024;-71
2022/05/09 05:15:29;;;;;;;24.08;7.45;;;;;;;7.73;79.64;102562.53;5073566;28;20055;-71
2022/05/09 05:17:55;;;;;;;20.88;7.13;;;;;;;7.80;79.73;102560.91;5073089;28;20028;-72
2022/05/09 05:20:20;;;;;;;21.35;7.22;;;;;;;7.84;79.41;102569.59;5072691;28;20025;-71
2022/05/09 05:22:47;;;;;;;16.25;7.35;;;;;;;7.93;79.32;102569.75;5073259;28;20021;-72
2022/05/09 05:25:15;;;;;;;17.23;7.50;;;;;;;7.97;78.90;102567.22;5073384;28;20028;-72
2022/05/09 05:27:40;;;;;;;23.70;7.70;;;;;;;8.06;78.58;102571.69;5072138;28;20108;-71
2022/05/09 05:30:09;;;;;;;23.15;7.55;;;;;;;8.13;79.15;102562.25;5073211;28;20107;-72
2022/05/09 05:32:36;;;;;;;22.70;7.32;;;;;;;8.21;78.78;102573.63;5071982;28;20035;-72
2022/05/09 05:35:07;;;;;;;21.63;7.43;;;;;;;8.27;77.86;102565.03;5073575;28;20021;-72
2022/05/09 05:37:33;;;;;;;21.88;7.20;;;;;;;8.32;79.29;102571.19;5073111;28;20032;-72
2022/05/09 05:40:00;;;;;;;15.32;7.18;;;;;;;8.46;78.25;102569.66;5072492;28;20476;-71
2022/05/09 05:42:25;;;;;;;22.27;7.10;;;;;;;8.54;77.83;102564.56;5073114;28;20043;-72
2022/05/09 05:44:51;;;;;;;19.20;7.28;;;;;;;8.63;76.67;102570.75;5072724;28;20028;-72
2022/05/09 05:47:18;;;;;;;19.20;7.38;;;;;;;8.73;77.70;102557.84;5072068;28;20027;-71
2022/05/09 05:49:44;;;;;;;22.98;7.05;;;;;;;8.83;77.49;102555.38;5072161;28;20032;-72
2022/05/09 05:52:11;;;;;;;18.27;7.15;;;;;;;8.89;76.68;102559.75;5072794;28;20025;-72
2022/05/09 05:54:42;;;;;;;22.08;7.20;;;;;;;8.97;75.19;102565.06;5072151;28;20035;-72
2022/05/09 05:57:16;;;;;;;15.43;6.72;;;;;;;9.09;75.02;102562.56;5072942;28;20036;-72
2022/05/09 05:59:45;;;;;;;;;;;;;;;9.17;74.92;102568.75;5072986;28;20101;-72
2022/05/09 06:02:11;;;;;;;16.85;6.85;;;;;;;9.29;73.78;102568.00;5072191;28;20009;-72
2022/05/09 06:04:36;;;;;;;12.45;7.05;;;;;;;9.38;73.49;102565.44;5072685;28;20460;-72
2022/05/09 06:07:01;;;;;;;13.50;6.88;;;;;;;9.48;72.95;102569.91;5073024;28;20090;-72
2022/05/09 06:09:26;;;;;;;13.88;6.45;;;;;;;9.50;72.43;102559.50;5072001;28;20031;-72
2022/05/09 06:11:52;;;;;;;16.60;6.60;;;;;;;9.62;71.34;102570.03;5072600;28;20036;-72
2022/05/09 06:14:17;;;;;;;17.38;6.95;;;;;;;9.69;71.44;102564.00;5072660;28;20025;-72
2022/05/09 06:16:43;;;;;;;16.80;6.97;;;;;;;9.72;71.67;102556.19;5071800;28;20472;-72
2022/05/09 06:19:09;;;;;;;16.00;6.43;;;;;;;9.81;70.78;102558.88;5072714;28;20035;-72
2022/05/09 06:21:35;;;;;;;17.48;7.13;;;;;;;9.91;71.20;102567.63;5071984;28;20371;-72
2022/05/09 06:24:04;;;;;;;19.50;7.45;;;;;;;9.94;69.66;102554.63;5072747;28;20408;-72
2022/05/09 06:26:29;;;;;;;11.10;6.70;;;;;;;10.07;69.94;102559.06;5072788;28;20035;-72
2022/05/09 06:28:55;;;;;;;14.63;6.97;;;;;;;10.17;69.14;102564.28;5071365;28;20459;-72
2022/05/09 06:31:20;;;;;;;15.30;7.03;;;;;;;10.25;70.10;102565.22;5072475;28;20107;-72
2022/05/09 06:33:45;;;;;;;18.73;7.28;;;;;;;10.34;69.07;102559.22;5072441;28;20472;-72
2022/05/09 06:36:10;;;;;;;14.57;6.60;;;;;;;10.42;68.61;102560.97;5071905;28;20020;-72
2022/05/09 06:38:36;;;;;;;15.48;7.03;;;;;;;10.45;68.32;102547.97;5072295;28;20031;-72
2022/05/09 06:41:01;;;;;;;22.13;7.30;;;;;;;10.62;67.63;102560.19;5072486;28;20495;-72
2022/05/09 06:43:27;;;;;;;17.65;7.22;;;;;;;10.71;67.37;102555.03;5071807;28;20021;-72
2022/05/09 06:45:52;;;;;;;11.23;6.75;;;;;;;10.84;67.79;102561.16;5072332;28;20032;-72
2022/05/09 06:48:18;;;;;;;18.10;7.45;;;;;;;10.89;67.66;102556.78;5072469;28;20395;-72
2022/05/09 06:50:44;;;;;;;15.43;6.88;;;;;;;10.98;66.89;102546.38;5071159;28;20020;-72
2022/05/09 06:53:11;;;;;;;18.20;8.13;;;;;;;11.07;65.38;102553.38;5072501;28;20033;-73
2022/05/09 06:55:37;;;;;;;19.73;7.95;;;;;;;11.16;65.29;102553.41;5072061;28;20036;-72
2022/05/09 06:58:07;;;;;;;14.77;7.00;;;;;;;11.28;65.30;102553.41;5071101;28;20048;-72
2022/05/09 07:00:33;;;;;;;14.80;7.38;;;;;;;11.39;64.86;102546.44;5074607;28;20036;-72
2022/05/09 07:02:59;;;;;;;18.38;7.68;;;;;;;11.50;64.98;102549.06;5076065;28;20501;-72
2022/05/09 07:05:24;;;;;;;22.52;7.72;;;;;;;11.59;63.88;102546.44;5075240;28;20472;-72
2022/05/09 07:07:49;;;;;;;17.60;7.38;;;;;;;11.66;62.85;102544.69;5075572;28;20851;-72
2022/05/09 07:10:17;;;;;;;15.35;7.43;;;;;;;11.78;63.31;102549.06;5075834;28;20384;-72
2022/05/09 07:12:48;;;;;;;14.57;6.60;;;;;;;11.86;62.58;102542.94;5074673;28;20530;-72
2022/05/09 07:15:16;;;;;;;16.52;8.57;;;;;;;11.98;62.44;102543.81;5075933;28;20361;-72
2022/05/09 07:17:42;;;;;;;19.02;7.28;;;;;;;12.10;62.86;102538.56;5075656;28;20028;-72
2022/05/09 07:20:08;;;;;;;17.73;7.70;;;;;;;12.21;62.97;102539.41;5075028;28;20375;-72
2022/05/09 07:22:33;;;;;;;19.58;7.95;;;;;;;12.30;64.22;102539.38;5075294;28;20473;-72
2022/05/09 07:24:58;;;;;;;19.70;7.65;;;;;;;12.39;61.30;102544.56;5074750;28;20031;-72
2022/05/09 07:27:24;;;;;;;15.77;6.88;;;;;;;12.47;60.76;102541.91;5075478;28;20024;-73
2022/05/09 07:29:49;;;;;;;15.30;6.90;;;;;;;12.54;60.36;102540.13;5075423;28;20143;-72
2022/05/09 07:32:14;;;;;;;16.92;7.28;;;;;;;12.61;61.56;102539.22;5074736;28;20535;-72
2022/05/09 07:34:40;;;;;;;17.08;7.38;;;;;;;12.67;62.02;102544.44;5075177;28;20111;-72
2022/05/09 07:37:05;;;;;;;19.25;7.63;;;;;;;12.77;59.73;102540.03;5075442;28;20476;-72
2022/05/09 07:39:31;;;;;;;18.85;7.05;;;;;;;12.85;60.26;102544.34;5074306;28;20020;-72
2022/05/09 07:41:56;;;;;;;16.42;7.35;;;;;;;12.98;59.11;102544.25;5075190;28;20024;-72
2022/05/09 07:44:22;;;;;;;20.38;7.38;;;;;;;13.09;58.69;102543.31;5075518;28;20085;-72
2022/05/09 07:46:47;;;;;;;16.30;6.95;;;;;;;13.21;58.42;102534.50;5074286;28;20033;-72
2022/05/09 07:49:13;;;;;;;19.42;7.40;;;;;;;13.37;59.90;102539.63;5075249;28;20499;-72
2022/05/09 07:51:38;;;;;;;19.05;7.03;;;;;;;13.46;57.93;102539.56;5074908;28;20025;-72
2022/05/09 07:54:04;;;;;;;17.05;7.40;;;;;;;13.53;58.90;102536.88;5074273;28;20027;-72
2022/05/09 07:56:30;;;;;;;17.23;7.43;;;;;;;13.66;58.40;102542.00;5074994;28;20024;-72
2022/05/09 07:58:55;;;;;;;16.52;7.18;;;;;;;13.75;59.92;102537.56;5074844;28;20048;-72
2022/05/09 08:01:20;;;;;;;17.48;7.03;;;;;;;13.89;57.44;102537.41;5074314;28;20499;-72
2022/05/09 08:03:46;;;;;;;15.35;7.03;;;;;;;14.01;56.92;102539.03;5074765;28;20062;-72
2022/05/09 08:06:11;;;;;;;13.32;6.32;;;;;;;14.14;55.65;102529.28;5074875;28;20027;-72
2022/05/09 08:08:37;;;;;;;18.30;6.57;;;;;;;14.27;56.34;102541.38;5073700;28;20086;-72
2022/05/09 08:11:03;;;;;;;14.00;6.45;;;;;;;14.45;56.45;102537.66;5074007;28;20029;-72
2022/05/09 08:13:33;;;;;;;15.52;6.00;;;;;;;14.56;57.09;102542.81;5074899;28;20028;-72
2022/05/09 08:15:59;;;;;;;17.00;6.35;;;;;;;14.71;55.78;102537.34;5074106;28;20025;-72
2022/05/09 08:18:25;;;;;;;13.30;6.68;;;;;;;14.84;54.66;102538.91;5074704;28;20031;-72
2022/05/09 08:20:51;;;;;;;13.98;6.57;;;;;;;14.90;53.84;102535.31;5074344;28;20036;-72
2022/05/09 08:23:18;;;;;;;15.70;6.68;;;;;;;15.02;55.59;102537.78;5073738;28;20028;-72
2022/05/09 08:25:46;;;;;;;15.75;6.90;;;;;;;15.18;54.39;102538.41;5073911;28;20484;-72
2022/05/09 08:28:11;;;;;;;11.02;5.30;;;;;;;15.38;54.26;102532.84;5073818;28;20043;-73
2022/05/09 08:30:38;;;;;;;12.88;5.72;;;;;;;15.50;53.19;102531.75;5074027;28;20024;-72
2022/05/09 08:33:06;;;;;;;14.98;6.65;;;;;;;15.61;52.79;102529.81;5074416;28;20063;-72
2022/05/09 08:35:31;;;;;;;12.63;5.63;;;;;;;15.73;51.27;102536.63;5073195;28;20670;-73
2022/05/09 08:37:57;;;;;;;15.32;5.85;;;;;;;15.78;51.34;102529.53;5074141;28;20078;-72
2022/05/09 08:40:43;;;;;;;11.77;5.07;;;;;;;15.91;52.52;102533.66;5074151;28;20056;-72
2022/05/09 08:43:44;;;;;;;9.50;4.53;;;;;;;16.05;52.19;102530.78;5073245;28;20469;-72
2022/05/09 08:46:20;;;;;;;12.00;4.90;;;;;;;16.18;50.30;102534.88;5073987;28;20542;-73
2022/05/09 08:49:00;;;;;;;12.40;4.93;;;;;;;16.36;51.13;102528.41;5073912;28;20040;-73
2022/05/09 08:51:43;;;;;;;14.20;4.82;;;;;;;16.51;50.96;102522.81;5073398;28;20035;-72
2022/05/09 08:54:12;;;;;;;8.77;4.60;;;;;;;16.75;50.24;102523.22;5074039;28;20047;-73
2022/05/09 08:56:50;;;;;;;12.05;4.97;;;;;;;16.89;49.28;102523.75;5072800;28;20032;-72
2022/05/09 08:59:25;;;;;;;8.05;3.00;;;;;;;16.96;47.38;102520.06;5073739;28;20166;-73
2022/05/09 09:02:09;;;;;;;7.85;3.47;;;;;;;17.01;47.34;102525.25;5073672;28;20043;-72
2022/05/09 09:04:35;;;;;;;;;;;;;;;17.06;49.88;102518.94;5073126;28;20039;-72
2022/05/09 09:07:40;;;;;;;11.25;3.75;;;;;;;17.23;47.78;102520.28;5073711;28;19923;-72
2022/05/09 09:10:24;;;;;;;9.43;3.53;;;;;;;17.38;47.08;102509.38;5073779;28;20058;-72
2022/05/09 09:13:08;;;;;;;15.18;4.38;;;;;;;17.51;47.02;102512.56;5073295;28;20036;-72
2022/05/09 09:15:48;;;;;;;7.95;3.90;;;;;;;17.68;45.59;102506.84;5073061;28;20041;-73
2022/05/09 09:18:26;;;;;;;10.27;3.90;;;;;;;17.72;45.14;102505.84;5072889;28;20029;-72
2022/05/09 09:20:54;;;;;;;8.77;3.15;;;;;;;17.68;42.78;102504.22;5073292;28;20025;-72
2022/05/09 09:23:28;;;;;;;8.35;3.25;;;;;;;17.80;44.96;102503.91;5072511;28;20020;-73
2022/05/09 09:26:21;;;;;;;10.10;3.42;;;;;;;18.02;46.04;102512.97;5072153;28;20111;-72
2022/05/09 09:28:52;;;;;;;8.60;4.13;;;;;;;18.20;44.31;102494.88;5073068;28;20032;-73
2022/05/09 09:31:27;;;;;;;7.10;4.00;;;;;;;18.31;43.62;102499.81;5073183;28;20480;-73
2022/05/09 09:34:30;;;;;;;9.52;4.00;;;;;;;18.42;44.20;102501.25;5072490;28;20039;-73
2022/05/09 09:37:07;;;;;;;9.43;3.58;;;;;;;18.66;43.51;102493.47;5073108;28;20448;-72
2022/05/09 09:39:32;;;;;;;7.25;4.03;;;;;;;18.71;42.69;102502.13;5072296;28;20097;-73
2022/05/09 09:41:58;;;;;;;9.35;3.95;;;;;;;18.74;41.92;102493.25;5073134;28;20020;-73
2022/05/09 09:44:26;;;;;;;9.70;4.03;;;;;;;18.86;44.16;102496.38;5073202;28;20035;-73
2022/05/09 09:47:04;;;;;;;14.13;4.28;;;;;;;19.02;42.32;102491.47;5071911;28;20099;-73
2022/05/09 09:49:32;;;;;;;13.27;4.65;;;;;;;19.01;42.19;102487.09;5072909;28;20461;-73
2022/05/09 09:51:58;;;;;;;10.30;3.47;;;;;;;19.05;41.36;102485.22;5073382;28;20024;-73
2022/05/09 09:54:30;;;;;;;13.90;4.00;;;;;;;19.20;42.23;102479.44;5072281;28;20052;-73
2022/05/09 09:56:55;;;;;;;10.10;4.10;;;;;;;19.20;41.40;102479.44;5072856;28;20112;-73
2022/05/09 09:59:23;;;;;;;8.85;3.47;;;;;;;19.31;41.98;102474.63;5072589;28;20076;-73
2022/05/09 10:02:08;;;;;;;7.03;3.67;;;;;;;19.50;41.75;102477.50;5071808;28;20021;-73
2022/05/09 10:04:34;;;;;;;10.88;3.70;;;;;;;19.63;40.78;102465.63;5072626;28;20503;-73
2022/05/09 10:07:12;;;;;;;8.50;3.40;;;;;;;19.83;41.49;102469.31;5072039;28;20165;-73
2022/05/09 10:09:42;;;;;;;12.10;4.25;;;;;;;19.90;40.12;102460.22;5072577;28;20029;-73
2022/05/09 10:12:19;;;;;;;9.20;3.40;;;;;;;19.98;39.62;102458.19;5072963;28;20044;-73
2022/05/09 10:14:45;;;;;;;11.43;4.00;;;;;;;20.08;39.85;102453.41;5071555;28;20387;-73
2022/05/09 10:17:36;;;;;;;11.43;4.25;;;;;;;20.09;40.19;102458.63;5072734;28;20017;-73
2022/05/09 10:20:24;;;;;;;7.80;3.40;;;;;;;20.16;41.23;102435.44;5072659;28;20032;-73
2022/05/09 10:25:36;;;;;;;7.47;3.33;;;;;;;20.55;38.57;102442.75;5072789;28;20031;-73
2022/05/09 10:28:19;;;;;;;7.95;3.53;;;;;;;20.75;40.72;102444.59;5071732;28;20028;-73
2022/05/09 10:30:48;;;;;;;8.90;4.43;;;;;;;20.81;37.12;102437.25;5072277;28;20111;-73
2022/05/09 10:33:38;;;;;;;14.45;3.85;;;;;;;21.06;39.39;102433.59;5072625;28;20028;-73
2022/05/09 10:36:16;;;;;;;7.93;4.07;;;;;;;21.08;37.56;102430.88;5075366;28;20024;-73
2022/05/09 10:38:48;;;;;;;8.90;3.95;;;;;;;21.15;38.79;102435.84;5076459;28;20048;-73
2022/05/09 10:41:35;;;;;;;10.20;4.10;;;;;;;21.31;38.71;102421.94;5076490;28;20028;-73
2022/05/09 10:44:39;;;;;;;11.35;4.30;;;;;;;21.40;38.75;102432.19;5075882;28;20032;-73
2022/05/09 10:47:10;;;;;;;10.65;4.30;;;;;;;21.65;40.38;102427.50;5076196;28;20465;-73
2022/05/09 10:49:48;;;;;;;9.45;3.90;;;;;;;21.88;38.82;102420.28;5075179;28;20032;-73
2022/05/09 10:52:28;;;;;;;10.98;4.03;;;;;;;21.91;36.93;102420.16;5076368;28;20043;-73
2022/05/09 10:55:05;;;;;;;11.07;4.35;;;;;;;22.08;37.13;102422.88;5075964;28;20031;-73
2022/05/09 10:57:38;;;;;;;9.82;4.68;;;;;;;22.10;35.99;102420.13;5074885;28;20079;-73
2022/05/09 11:00:06;;;;;;;8.68;4.35;;;;;;;21.91;35.60;102418.34;5076292;28;20090;-73
2022/05/09 11:02:41;;;;;;;7.63;4.53;;;;;;;21.94;35.17;102419.97;5075916;28;20029;-73
2022/05/09 11:05:07;;;;;;;11.63;4.93;;;;;;;22.22;35.76;102418.75;5075257;28;20057;-73
2022/05/09 11:07:41;;;;;;;9.75;5.00;;;;;;;22.27;34.83;102414.94;5075680;28;20021;-74
2022/05/09 11:10:27;;;;;;;6.95;4.53;;;;;;;22.49;37.00;102404.09;5075104;28;20029;-73
2022/05/09 11:13:05;;;;;;;8.93;4.38;;;;;;;22.68;37.04;102404.06;5075791;28;20024;-73
2022/05/09 11:15:46;;;;;;;9.38;4.63;;;;;;;22.98;37.16;102399.03;5076002;28;20131;-73
2022/05/09 11:18:21;;;;;;;7.57;4.28;;;;;;;23.07;35.25;102398.56;5074961;28;20066;-73
2022/05/09 11:20:48;;;;;;;9.48;4.25;;;;;;;23.19;35.19;102393.56;5075357;28;20029;-73
2022/05/09 11:23:32;;;;;;;9.05;5.25;;;;;;;23.17;34.68;102395.44;5075536;28;20392;-74
2022/05/09 11:26:09;;;;;;;8.13;4.10;;;;;;;23.46;34.77;102384.09;5075043;28;20039;-74
2022/05/09 11:29:01;;;;;;;10.88;3.97;;;;;;;23.69;34.43;102379.38;5075462;28;20044;-74
2022/05/09 11:31:50;;;;;;;8.02;4.00;;;;;;;24.00;33.24;102367.88;5074899;28;20105;-74
2022/05/09 11:34:39;;;;;;;9.57;4.85;;;;;;;24.03;33.35;102381.91;5075581;28;20043;-74
2022/05/09 11:37:16;;;;;;;5.88;3.83;;;;;;;24.14;33.52;102383.09;5075439;28;20150;-74
2022/05/09 11:39:59;;;;;;;10.35;4.30;;;;;;;24.37;33.35;102365.81;5074450;28;20046;-74
2022/05/09 11:45:31;;;;;;;9.75;4.35;;;;;;;25.75;32.33;102361.00;5074488;28;20035;-74